sensor_id;sensor_type;location;lat;lon;timestamp;P1;durP1;ratioP1;P2;durP2;ratioP2
70313;SDS011;71040;47.526;18.986;2023-07-20T00:04:12;4.07;;;2.17;;
70313;SDS011;71040;47.526;18.986;2023-07-20T00:09:13;9.65;;;2.47;;
70313;SDS011;71040;47.526;18.986;2023-07-20T00:14:16;5.28;;;2.10;;
70313;SDS011;71040;47.526;18.986;2023-07-20T00:19:18;4.72;;;2.03;;
70313;SDS011;71040;47.526;18.986;2023-07-20T00:24:18;4.17;;;2.30;;
70313;SDS011;71040;47.526;18.986;2023-07-20T00:29:24;4.65;;;2.42;;
70313;SDS011;71040;47.526;18.986;2023-07-20T00:34:24;4.03;;;2.10;;
70313;SDS011;71040;47.526;18.986;2023-07-20T00:39:25;6.05;;;2.38;;
70313;SDS011;71040;47.526;18.986;2023-07-20T00:44:25;5.13;;;2.10;;
70313;SDS011;71040;47.526;18.986;2023-07-20T00:49:28;3.93;;;2.17;;
70313;SDS011;71040;47.526;18.986;2023-07-20T00:54:35;7.03;;;2.85;;
70313;SDS011;71040;47.526;18.986;2023-07-20T00:59:37;4.13;;;2.47;;
70313;SDS011;71040;47.526;18.986;2023-07-20T01:04:37;4.33;;;2.43;;
70313;SDS011;71040;47.526;18.986;2023-07-20T01:09:46;16.20;;;3.33;;
70313;SDS011;71040;47.526;18.986;2023-07-20T01:14:52;3.60;;;2.10;;
70313;SDS011;71040;47.526;18.986;2023-07-20T01:19:53;3.25;;;2.17;;
70313;SDS011;71040;47.526;18.986;2023-07-20T01:30:41;5.10;;;2.42;;
70313;SDS011;71040;47.526;18.986;2023-07-20T01:40:52;4.47;;;2.25;;
70313;SDS011;71040;47.526;18.986;2023-07-20T01:45:53;5.77;;;2.33;;
70313;SDS011;71040;47.526;18.986;2023-07-20T01:50:56;4.13;;;2.13;;
70313;SDS011;71040;47.526;18.986;2023-07-20T01:55:59;3.42;;;2.60;;
70313;SDS011;71040;47.526;18.986;2023-07-20T02:01:02;7.32;;;2.35;;
70313;SDS011;71040;47.526;18.986;2023-07-20T02:06:05;3.45;;;2.17;;
70313;SDS011;71040;47.526;18.986;2023-07-20T02:11:05;6.80;;;2.45;;
70313;SDS011;71040;47.526;18.986;2023-07-20T02:16:17;4.70;;;2.15;;
70313;SDS011;71040;47.526;18.986;2023-07-20T02:21:17;6.23;;;2.63;;
70313;SDS011;71040;47.526;18.986;2023-07-20T02:26:18;4.03;;;2.37;;
70313;SDS011;71040;47.526;18.986;2023-07-20T02:31:18;5.80;;;2.70;;
70313;SDS011;71040;47.526;18.986;2023-07-20T02:36:23;7.32;;;2.58;;
70313;SDS011;71040;47.526;18.986;2023-07-20T02:41:24;5.53;;;2.05;;
70313;SDS011;71040;47.526;18.986;2023-07-20T02:46:29;5.13;;;2.40;;
70313;SDS011;71040;47.526;18.986;2023-07-20T02:51:32;3.40;;;1.95;;
70313;SDS011;71040;47.526;18.986;2023-07-20T02:56:37;5.80;;;2.75;;
70313;SDS011;71040;47.526;18.986;2023-07-20T03:01:38;4.50;;;2.25;;
70313;SDS011;71040;47.526;18.986;2023-07-20T03:06:38;5.73;;;2.67;;
70313;SDS011;71040;47.526;18.986;2023-07-20T03:11:39;6.40;;;2.55;;
70313;SDS011;71040;47.526;18.986;2023-07-20T03:16:41;4.43;;;2.17;;
70313;SDS011;71040;47.526;18.986;2023-07-20T03:21:42;7.13;;;3.00;;
70313;SDS011;71040;47.526;18.986;2023-07-20T03:26:42;6.37;;;2.60;;
70313;SDS011;71040;47.526;18.986;2023-07-20T03:31:42;4.13;;;2.20;;
70313;SDS011;71040;47.526;18.986;2023-07-20T03:42:14;5.65;;;2.40;;
70313;SDS011;71040;47.526;18.986;2023-07-20T03:47:16;7.28;;;2.70;;
70313;SDS011;71040;47.526;18.986;2023-07-20T03:52:17;4.73;;;2.13;;
70313;SDS011;71040;47.526;18.986;2023-07-20T03:57:24;5.80;;;2.40;;
70313;SDS011;71040;47.526;18.986;2023-07-20T04:02:32;5.18;;;2.50;;
70313;SDS011;71040;47.526;18.986;2023-07-20T04:07:32;4.13;;;2.20;;
70313;SDS011;71040;47.526;18.986;2023-07-20T04:12:33;6.40;;;2.80;;
70313;SDS011;71040;47.526;18.986;2023-07-20T04:17:33;4.67;;;2.67;;
70313;SDS011;71040;47.526;18.986;2023-07-20T04:22:34;4.27;;;2.20;;
70313;SDS011;71040;47.526;18.986;2023-07-20T04:27:34;4.05;;;2.65;;
70313;SDS011;71040;47.526;18.986;2023-07-20T04:32:34;4.17;;;2.30;;
70313;SDS011;71040;47.526;18.986;2023-07-20T04:37:35;4.67;;;2.57;;
70313;SDS011;71040;47.526;18.986;2023-07-20T04:42:45;2.60;;;2.08;;
70313;SDS011;71040;47.526;18.986;2023-07-20T04:47:47;3.75;;;2.40;;
70313;SDS011;71040;47.526;18.986;2023-07-20T04:52:50;5.25;;;2.28;;
70313;SDS011;71040;47.526;18.986;2023-07-20T04:57:53;3.30;;;2.13;;
70313;SDS011;71040;47.526;18.986;2023-07-20T05:02:53;4.95;;;2.65;;
70313;SDS011;71040;47.526;18.986;2023-07-20T05:07:54;3.70;;;2.13;;
70313;SDS011;71040;47.526;18.986;2023-07-20T05:12:54;4.40;;;2.43;;
70313;SDS011;71040;47.526;18.986;2023-07-20T05:17:55;3.67;;;2.50;;
70313;SDS011;71040;47.526;18.986;2023-07-20T05:22:55;7.47;;;2.35;;
70313;SDS011;71040;47.526;18.986;2023-07-20T05:27:56;4.87;;;2.60;;
70313;SDS011;71040;47.526;18.986;2023-07-20T05:32:56;6.00;;;2.90;;
70313;SDS011;71040;47.526;18.986;2023-07-20T05:37:58;6.35;;;2.80;;
70313;SDS011;71040;47.526;18.986;2023-07-20T05:42:59;4.53;;;2.87;;
70313;SDS011;71040;47.526;18.986;2023-07-20T05:48:00;6.00;;;3.00;;
70313;SDS011;71040;47.526;18.986;2023-07-20T05:53:05;3.60;;;2.75;;
70313;SDS011;71040;47.526;18.986;2023-07-20T05:58:06;4.53;;;2.30;;
70313;SDS011;71040;47.526;18.986;2023-07-20T06:03:06;3.83;;;2.70;;
70313;SDS011;71040;47.526;18.986;2023-07-20T06:08:07;2.93;;;1.90;;
70313;SDS011;71040;47.526;18.986;2023-07-20T06:13:07;2.92;;;2.55;;
70313;SDS011;71040;47.526;18.986;2023-07-20T06:18:08;4.67;;;3.00;;
70313;SDS011;71040;47.526;18.986;2023-07-20T06:23:10;5.10;;;2.67;;
70313;SDS011;71040;47.526;18.986;2023-07-20T06:28:13;5.30;;;2.85;;
70313;SDS011;71040;47.526;18.986;2023-07-20T06:33:16;15.18;;;4.30;;
70313;SDS011;71040;47.526;18.986;2023-07-20T06:38:16;6.63;;;3.10;;
70313;SDS011;71040;47.526;18.986;2023-07-20T06:43:17;5.87;;;3.00;;
70313;SDS011;71040;47.526;18.986;2023-07-20T06:48:20;6.25;;;3.35;;
70313;SDS011;71040;47.526;18.986;2023-07-20T06:53:21;8.93;;;3.45;;
70313;SDS011;71040;47.526;18.986;2023-07-20T06:58:22;7.53;;;2.87;;
70313;SDS011;71040;47.526;18.986;2023-07-20T07:03:23;16.25;;;3.92;;
70313;SDS011;71040;47.526;18.986;2023-07-20T07:08:23;9.00;;;3.40;;
70313;SDS011;71040;47.526;18.986;2023-07-20T07:13:24;10.35;;;3.15;;
70313;SDS011;71040;47.526;18.986;2023-07-20T07:18:24;7.60;;;2.77;;
70313;SDS011;71040;47.526;18.986;2023-07-20T07:23:26;5.55;;;3.08;;
70313;SDS011;71040;47.526;18.986;2023-07-20T07:28:28;7.27;;;2.97;;
70313;SDS011;71040;47.526;18.986;2023-07-20T07:33:28;8.43;;;2.92;;
70313;SDS011;71040;47.526;18.986;2023-07-20T07:38:28;11.60;;;2.67;;
70313;SDS011;71040;47.526;18.986;2023-07-20T07:43:31;9.77;;;2.35;;
70313;SDS011;71040;47.526;18.986;2023-07-20T07:48:34;14.10;;;3.20;;
70313;SDS011;71040;47.526;18.986;2023-07-20T07:53:37;10.45;;;3.10;;
70313;SDS011;71040;47.526;18.986;2023-07-20T07:58:37;5.80;;;2.60;;
70313;SDS011;71040;47.526;18.986;2023-07-20T08:03:38;6.37;;;2.50;;
70313;SDS011;71040;47.526;18.986;2023-07-20T08:14:12;8.32;;;2.53;;
70313;SDS011;71040;47.526;18.986;2023-07-20T08:25:09;7.00;;;2.33;;
70313;SDS011;71040;47.526;18.986;2023-07-20T08:30:12;8.05;;;2.42;;
70313;SDS011;71040;47.526;18.986;2023-07-20T08:35:13;4.70;;;2.08;;
70313;SDS011;71040;47.526;18.986;2023-07-20T08:40:18;4.05;;;2.42;;
70313;SDS011;71040;47.526;18.986;2023-07-20T08:45:19;5.77;;;2.53;;
70313;SDS011;71040;47.526;18.986;2023-07-20T08:50:22;15.10;;;2.55;;
70313;SDS011;71040;47.526;18.986;2023-07-20T08:55:29;5.85;;;2.25;;
70313;SDS011;71040;47.526;18.986;2023-07-20T09:00:35;5.85;;;2.53;;
70313;SDS011;71040;47.526;18.986;2023-07-20T09:05:38;7.13;;;2.03;;
70313;SDS011;71040;47.526;18.986;2023-07-20T09:10:41;3.13;;;1.70;;
70313;SDS011;71040;47.526;18.986;2023-07-20T09:15:49;8.00;;;2.50;;
70313;SDS011;71040;47.526;18.986;2023-07-20T09:20:57;6.95;;;2.17;;
70313;SDS011;71040;47.526;18.986;2023-07-20T09:26:00;3.93;;;1.90;;
70313;SDS011;71040;47.526;18.986;2023-07-20T09:31:01;7.13;;;2.58;;
70313;SDS011;71040;47.526;18.986;2023-07-20T09:36:16;5.43;;;1.92;;
70313;SDS011;71040;47.526;18.986;2023-07-20T09:41:16;4.67;;;2.00;;
70313;SDS011;71040;47.526;18.986;2023-07-20T09:46:23;4.10;;;2.30;;
70313;SDS011;71040;47.526;18.986;2023-07-20T09:51:41;9.07;;;1.92;;
70313;SDS011;71040;47.526;18.986;2023-07-20T09:56:44;5.07;;;1.70;;
70313;SDS011;71040;47.526;18.986;2023-07-20T10:01:46;10.85;;;2.63;;
70313;SDS011;71040;47.526;18.986;2023-07-20T10:06:49;4.72;;;1.90;;
70313;SDS011;71040;47.526;18.986;2023-07-20T10:11:54;6.20;;;1.67;;
70313;SDS011;71040;47.526;18.986;2023-07-20T10:17:03;5.18;;;2.13;;
70313;SDS011;71040;47.526;18.986;2023-07-20T10:22:09;6.88;;;1.80;;
70313;SDS011;71040;47.526;18.986;2023-07-20T10:27:17;5.25;;;2.35;;
70313;SDS011;71040;47.526;18.986;2023-07-20T10:32:18;9.82;;;1.73;;
70313;SDS011;71040;47.526;18.986;2023-07-20T10:42:56;8.52;;;1.92;;
70313;SDS011;71040;47.526;18.986;2023-07-20T10:48:22;5.93;;;1.77;;
70313;SDS011;71040;47.526;18.986;2023-07-20T10:53:24;5.22;;;1.73;;
70313;SDS011;71040;47.526;18.986;2023-07-20T10:58:27;7.30;;;2.00;;
70313;SDS011;71040;47.526;18.986;2023-07-20T11:04:11;2.78;;;1.20;;
70313;SDS011;71040;47.526;18.986;2023-07-20T11:14:09;5.37;;;1.67;;
70313;SDS011;71040;47.526;18.986;2023-07-20T11:19:17;4.20;;;1.85;;
70313;SDS011;71040;47.526;18.986;2023-07-20T11:24:18;6.57;;;1.35;;
70313;SDS011;71040;47.526;18.986;2023-07-20T11:29:22;6.35;;;1.67;;
70313;SDS011;71040;47.526;18.986;2023-07-20T11:34:25;4.80;;;1.70;;
70313;SDS011;71040;47.526;18.986;2023-07-20T11:39:33;8.02;;;1.70;;
70313;SDS011;71040;47.526;18.986;2023-07-20T11:44:33;9.43;;;2.10;;
70313;SDS011;71040;47.526;18.986;2023-07-20T11:49:38;11.15;;;1.65;;
70313;SDS011;71040;47.526;18.986;2023-07-20T11:54:42;8.70;;;1.98;;
70313;SDS011;71040;47.526;18.986;2023-07-20T11:59:54;7.93;;;1.77;;
70313;SDS011;71040;47.526;18.986;2023-07-20T12:04:58;6.43;;;1.50;;
70313;SDS011;71040;47.526;18.986;2023-07-20T12:15:14;2.90;;;1.25;;
70313;SDS011;71040;47.526;18.986;2023-07-20T12:20:28;3.72;;;1.35;;
70313;SDS011;71040;47.526;18.986;2023-07-20T12:25:42;2.60;;;1.27;;
70313;SDS011;71040;47.526;18.986;2023-07-20T12:30:48;3.78;;;1.55;;
70313;SDS011;71040;47.526;18.986;2023-07-20T12:35:56;10.27;;;1.55;;
70313;SDS011;71040;47.526;18.986;2023-07-20T12:41:00;11.02;;;1.60;;
70313;SDS011;71040;47.526;18.986;2023-07-20T12:46:01;7.25;;;1.77;;
70313;SDS011;71040;47.526;18.986;2023-07-20T12:51:04;4.63;;;1.30;;
70313;SDS011;71040;47.526;18.986;2023-07-20T12:56:04;9.83;;;1.47;;
70313;SDS011;71040;47.526;18.986;2023-07-20T13:01:05;9.20;;;1.30;;
70313;SDS011;71040;47.526;18.986;2023-07-20T13:06:06;2.42;;;1.13;;
70313;SDS011;71040;47.526;18.986;2023-07-20T13:11:09;5.20;;;1.27;;
70313;SDS011;71040;47.526;18.986;2023-07-20T13:16:09;10.47;;;1.50;;
70313;SDS011;71040;47.526;18.986;2023-07-20T13:21:10;5.93;;;1.40;;
70313;SDS011;71040;47.526;18.986;2023-07-20T13:26:11;7.38;;;1.33;;
70313;SDS011;71040;47.526;18.986;2023-07-20T13:31:12;6.38;;;1.30;;
70313;SDS011;71040;47.526;18.986;2023-07-20T13:36:16;3.13;;;1.42;;
70313;SDS011;71040;47.526;18.986;2023-07-20T13:41:20;5.40;;;1.75;;
70313;SDS011;71040;47.526;18.986;2023-07-20T13:46:21;3.93;;;1.23;;
70313;SDS011;71040;47.526;18.986;2023-07-20T13:51:21;2.13;;;1.00;;
70313;SDS011;71040;47.526;18.986;2023-07-20T13:56:21;1.93;;;1.00;;
70313;SDS011;71040;47.526;18.986;2023-07-20T14:01:28;2.43;;;1.10;;
70313;SDS011;71040;47.526;18.986;2023-07-20T14:06:30;6.10;;;2.05;;
70313;SDS011;71040;47.526;18.986;2023-07-20T14:11:34;3.58;;;1.20;;
70313;SDS011;71040;47.526;18.986;2023-07-20T14:16:34;3.07;;;1.10;;
70313;SDS011;71040;47.526;18.986;2023-07-20T14:21:40;4.05;;;1.15;;
70313;SDS011;71040;47.526;18.986;2023-07-20T14:26:42;2.03;;;1.38;;
70313;SDS011;71040;47.526;18.986;2023-07-20T14:31:43;6.37;;;1.10;;
70313;SDS011;71040;47.526;18.986;2023-07-20T14:36:44;3.42;;;1.10;;
70313;SDS011;71040;47.526;18.986;2023-07-20T14:41:47;3.15;;;0.93;;
70313;SDS011;71040;47.526;18.986;2023-07-20T14:46:51;6.90;;;1.00;;
70313;SDS011;71040;47.526;18.986;2023-07-20T14:51:54;14.77;;;1.60;;
70313;SDS011;71040;47.526;18.986;2023-07-20T14:56:57;5.05;;;1.55;;
70313;SDS011;71040;47.526;18.986;2023-07-20T15:01:59;2.97;;;1.00;;
70313;SDS011;71040;47.526;18.986;2023-07-20T15:07:00;3.83;;;1.07;;
70313;SDS011;71040;47.526;18.986;2023-07-20T15:12:00;5.33;;;1.10;;
70313;SDS011;71040;47.526;18.986;2023-07-20T15:17:03;3.80;;;1.42;;
70313;SDS011;71040;47.526;18.986;2023-07-20T15:22:06;1.98;;;1.10;;
70313;SDS011;71040;47.526;18.986;2023-07-20T15:27:07;3.85;;;1.10;;
70313;SDS011;71040;47.526;18.986;2023-07-20T15:32:10;2.78;;;1.35;;
70313;SDS011;71040;47.526;18.986;2023-07-20T15:37:12;2.92;;;1.35;;
70313;SDS011;71040;47.526;18.986;2023-07-20T15:42:16;3.33;;;1.17;;
70313;SDS011;71040;47.526;18.986;2023-07-20T15:47:19;1.50;;;0.95;;
70313;SDS011;71040;47.526;18.986;2023-07-20T15:52:21;2.58;;;1.25;;
70313;SDS011;71040;47.526;18.986;2023-07-20T15:57:23;2.05;;;0.93;;
70313;SDS011;71040;47.526;18.986;2023-07-20T16:02:28;3.67;;;1.17;;
70313;SDS011;71040;47.526;18.986;2023-07-20T16:07:31;1.73;;;1.17;;
70313;SDS011;71040;47.526;18.986;2023-07-20T16:12:31;2.97;;;0.82;;
70313;SDS011;71040;47.526;18.986;2023-07-20T16:17:34;1.40;;;0.82;;
70313;SDS011;71040;47.526;18.986;2023-07-20T16:22:35;2.47;;;1.10;;
70313;SDS011;71040;47.526;18.986;2023-07-20T16:27:37;2.05;;;1.00;;
70313;SDS011;71040;47.526;18.986;2023-07-20T16:32:40;1.40;;;1.00;;
70313;SDS011;71040;47.526;18.986;2023-07-20T16:37:43;1.83;;;1.10;;
70313;SDS011;71040;47.526;18.986;2023-07-20T16:42:48;1.85;;;0.88;;
70313;SDS011;71040;47.526;18.986;2023-07-20T16:47:48;1.60;;;0.70;;
70313;SDS011;71040;47.526;18.986;2023-07-20T16:52:48;1.97;;;0.80;;
70313;SDS011;71040;47.526;18.986;2023-07-20T16:57:54;1.70;;;0.88;;
70313;SDS011;71040;47.526;18.986;2023-07-20T17:02:54;1.65;;;0.70;;
70313;SDS011;71040;47.526;18.986;2023-07-20T17:07:57;2.03;;;0.80;;
70313;SDS011;71040;47.526;18.986;2023-07-20T17:12:57;2.35;;;0.85;;
70313;SDS011;71040;47.526;18.986;2023-07-20T17:18:00;1.38;;;0.90;;
70313;SDS011;71040;47.526;18.986;2023-07-20T17:23:01;1.63;;;0.80;;
70313;SDS011;71040;47.526;18.986;2023-07-20T17:28:06;2.00;;;1.05;;
70313;SDS011;71040;47.526;18.986;2023-07-20T17:33:06;3.85;;;1.15;;
70313;SDS011;71040;47.526;18.986;2023-07-20T17:38:08;0.90;;;0.68;;
70313;SDS011;71040;47.526;18.986;2023-07-20T17:43:11;2.08;;;0.60;;
70313;SDS011;71040;47.526;18.986;2023-07-20T17:48:11;1.23;;;0.80;;
70313;SDS011;71040;47.526;18.986;2023-07-20T17:53:17;1.58;;;0.82;;
70313;SDS011;71040;47.526;18.986;2023-07-20T17:58:17;1.83;;;0.60;;
70313;SDS011;71040;47.526;18.986;2023-07-20T18:03:18;1.53;;;0.63;;
70313;SDS011;71040;47.526;18.986;2023-07-20T18:08:21;1.98;;;0.93;;
70313;SDS011;71040;47.526;18.986;2023-07-20T18:13:21;1.20;;;0.70;;
70313;SDS011;71040;47.526;18.986;2023-07-20T18:18:22;1.10;;;0.70;;
70313;SDS011;71040;47.526;18.986;2023-07-20T18:23:24;0.90;;;0.50;;
70313;SDS011;71040;47.526;18.986;2023-07-20T18:28:25;0.90;;;0.50;;
70313;SDS011;71040;47.526;18.986;2023-07-20T18:33:28;0.90;;;0.70;;
70313;SDS011;71040;47.526;18.986;2023-07-20T18:38:28;0.90;;;0.67;;
70313;SDS011;71040;47.526;18.986;2023-07-20T18:43:31;1.53;;;0.80;;
70313;SDS011;71040;47.526;18.986;2023-07-20T18:48:32;1.17;;;0.77;;
70313;SDS011;71040;47.526;18.986;2023-07-20T18:53:32;1.02;;;0.70;;
70313;SDS011;71040;47.526;18.986;2023-07-20T18:58:36;1.45;;;0.68;;
70313;SDS011;71040;47.526;18.986;2023-07-20T19:03:38;0.90;;;0.52;;
70313;SDS011;71040;47.526;18.986;2023-07-20T19:08:41;1.10;;;0.50;;
70313;SDS011;71040;47.526;18.986;2023-07-20T19:13:46;2.78;;;0.82;;
70313;SDS011;71040;47.526;18.986;2023-07-20T19:18:47;1.08;;;0.60;;
70313;SDS011;71040;47.526;18.986;2023-07-20T19:23:49;1.85;;;0.60;;
70313;SDS011;71040;47.526;18.986;2023-07-20T19:28:50;1.20;;;0.63;;
70313;SDS011;71040;47.526;18.986;2023-07-20T19:33:53;1.10;;;0.60;;
70313;SDS011;71040;47.526;18.986;2023-07-20T19:38:55;1.15;;;0.50;;
70313;SDS011;71040;47.526;18.986;2023-07-20T19:43:58;1.20;;;0.70;;
70313;SDS011;71040;47.526;18.986;2023-07-20T19:48:58;1.60;;;0.90;;
70313;SDS011;71040;47.526;18.986;2023-07-20T19:53:59;1.58;;;0.60;;
70313;SDS011;71040;47.526;18.986;2023-07-20T19:59:02;0.90;;;0.77;;
70313;SDS011;71040;47.526;18.986;2023-07-20T20:04:06;0.98;;;0.57;;
70313;SDS011;71040;47.526;18.986;2023-07-20T20:09:09;1.13;;;0.60;;
70313;SDS011;71040;47.526;18.986;2023-07-20T20:14:09;1.13;;;0.75;;
70313;SDS011;71040;47.526;18.986;2023-07-20T20:19:12;1.08;;;0.80;;
70313;SDS011;71040;47.526;18.986;2023-07-20T20:24:13;2.33;;;0.80;;
70313;SDS011;71040;47.526;18.986;2023-07-20T20:29:13;1.17;;;0.87;;
70313;SDS011;71040;47.526;18.986;2023-07-20T20:34:16;1.07;;;0.70;;
70313;SDS011;71040;47.526;18.986;2023-07-20T20:39:17;0.80;;;0.35;;
70313;SDS011;71040;47.526;18.986;2023-07-20T20:44:20;1.10;;;0.60;;
70313;SDS011;71040;47.526;18.986;2023-07-20T20:49:27;1.30;;;1.17;;
70313;SDS011;71040;47.526;18.986;2023-07-20T20:54:30;0.93;;;0.70;;
70313;SDS011;71040;47.526;18.986;2023-07-20T20:59:30;1.67;;;0.77;;
70313;SDS011;71040;47.526;18.986;2023-07-20T21:04:33;1.02;;;0.60;;
70313;SDS011;71040;47.526;18.986;2023-07-20T21:09:34;1.73;;;0.75;;
70313;SDS011;71040;47.526;18.986;2023-07-20T21:14:37;1.17;;;0.70;;
70313;SDS011;71040;47.526;18.986;2023-07-20T21:19:37;1.00;;;0.70;;
70313;SDS011;71040;47.526;18.986;2023-07-20T21:24:40;2.85;;;1.00;;
70313;SDS011;71040;47.526;18.986;2023-07-20T21:29:42;2.75;;;1.15;;
70313;SDS011;71040;47.526;18.986;2023-07-20T21:34:44;1.23;;;0.90;;
70313;SDS011;71040;47.526;18.986;2023-07-20T21:39:47;1.20;;;0.90;;
70313;SDS011;71040;47.526;18.986;2023-07-20T21:44:50;1.40;;;0.80;;
70313;SDS011;71040;47.526;18.986;2023-07-20T21:49:50;1.40;;;0.80;;
70313;SDS011;71040;47.526;18.986;2023-07-20T21:54:51;1.77;;;1.17;;
70313;SDS011;71040;47.526;18.986;2023-07-20T21:59:58;1.30;;;0.90;;
70313;SDS011;71040;47.526;18.986;2023-07-20T22:05:00;1.83;;;1.07;;
70313;SDS011;71040;47.526;18.986;2023-07-20T22:10:03;1.38;;;0.85;;
70313;SDS011;71040;47.526;18.986;2023-07-20T22:15:06;1.58;;;1.10;;
70313;SDS011;71040;47.526;18.986;2023-07-20T22:20:16;1.65;;;0.98;;
70313;SDS011;71040;47.526;18.986;2023-07-20T22:25:21;1.42;;;0.93;;
70313;SDS011;71040;47.526;18.986;2023-07-20T22:30:21;1.70;;;1.00;;
70313;SDS011;71040;47.526;18.986;2023-07-20T22:35:25;1.92;;;1.00;;
70313;SDS011;71040;47.526;18.986;2023-07-20T22:40:28;1.33;;;1.00;;
70313;SDS011;71040;47.526;18.986;2023-07-20T22:45:29;3.13;;;1.52;;
70313;SDS011;71040;47.526;18.986;2023-07-20T22:50:32;1.88;;;1.10;;
70313;SDS011;71040;47.526;18.986;2023-07-20T22:55:35;1.58;;;1.10;;
70313;SDS011;71040;47.526;18.986;2023-07-20T23:00:36;1.27;;;1.02;;
70313;SDS011;71040;47.526;18.986;2023-07-20T23:05:36;1.70;;;1.00;;
70313;SDS011;71040;47.526;18.986;2023-07-20T23:10:37;1.50;;;1.20;;
70313;SDS011;71040;47.526;18.986;2023-07-20T23:15:48;1.85;;;1.20;;
70313;SDS011;71040;47.526;18.986;2023-07-20T23:20:53;2.67;;;1.48;;
70313;SDS011;71040;47.526;18.986;2023-07-20T23:25:56;2.05;;;1.23;;
70313;SDS011;71040;47.526;18.986;2023-07-20T23:30:56;2.00;;;0.83;;
70313;SDS011;71040;47.526;18.986;2023-07-20T23:36:06;1.70;;;1.10;;
70313;SDS011;71040;47.526;18.986;2023-07-20T23:41:12;1.55;;;1.13;;
70313;SDS011;71040;47.526;18.986;2023-07-20T23:46:12;1.95;;;1.00;;
70313;SDS011;71040;47.526;18.986;2023-07-20T23:51:22;1.63;;;1.00;;
70313;SDS011;71040;47.526;18.986;2023-07-20T23:56:23;2.90;;;0.93;;
